Time;durP1;ratioP1;P1;durP2;ratioP2;P2;SDS_P1;SDS_P2;PMS_P1;PMS_P2;Temp;Humidity;BMP_temperature;BMP_pressure;BME280_temperature;BME280_humidity;BME280_pressure;Samples;Min_cycle;Max_cycle;Signal;HPM_P1;HPM_P2
2022/07/02 00:00:38;;;;;;;;;;;;;;;;;;5079084;28;19958;-41
2022/07/02 00:03:03;;;;;;;;;;;;;;;;;;5079013;28;19958;-42
2022/07/02 00:05:28;;;;;;;;;;;;;;;;;;5078253;28;19938;-41
2022/07/02 00:07:53;;;;;;;;;;;;;;;;;;5077751;28;19912;-41
2022/07/02 00:10:18;;;;;;;;;;;;;;;;;;5078794;28;19908;-42
2022/07/02 00:12:43;;;;;;;;;;;;;;;;;;5078695;28;19908;-41
2022/07/02 00:15:09;;;;;;;;;;;;;;;;;;5078724;28;20325;-41
2022/07/02 00:17:34;;;;;;;;;;;;;;;;;;5078770;28;19908;-42
2022/07/02 00:19:59;;;;;;;;;;;;;;;;;;5078545;28;19913;-41
2022/07/02 00:22:25;;;;;;;;;;;;;;;;;;5078739;28;19908;-41
2022/07/02 00:24:50;;;;;;;;;;;;;;;;;;5078717;28;19908;-41
2022/07/02 00:27:15;;;;;;;;;;;;;;;;;;5078767;28;19962;-41
2022/07/02 00:29:40;;;;;;;;;;;;;;;;;;5060736;28;19908;-41
2022/07/02 00:32:05;;;;;;;;;;;;;;;;;;5077853;28;19920;-41
2022/07/02 00:34:33;;;;;;;;;;;;;;;;;;5078299;28;19908;-42
2022/07/02 00:36:59;;;;;;;;;;;;;;;;;;5078520;28;19913;-41
2022/07/02 00:39:24;;;;;;;;;;;;;;;;;;5078465;28;19920;-42
2022/07/02 00:41:49;;;;;;;;;;;;;;;;;;5078313;28;19979;-41
2022/07/02 00:44:14;;;;;;;;;;;;;;;;;;5078187;28;19908;-41
2022/07/02 00:46:39;;;;;;;;;;;;;;;;;;5078498;28;19909;-41
2022/07/02 00:49:04;;;;;;;;;;;;;;;;;;5077921;28;19909;-41
2022/07/02 00:51:29;;;;;;;;;;;;;;;;;;5078076;28;19909;-43
2022/07/02 00:53:54;;;;;;;;;;;;;;;;;;5078203;28;19919;-42
2022/07/02 00:56:20;;;;;;;;;;;;;;;;;;5077800;28;19915;-42
2022/07/02 00:58:45;;;;;;;;;;;;;;;;;;5077953;28;20466;-41
2022/07/02 01:01:10;;;;;;;;;;;;;;;;;;5077986;28;19908;-41
2022/07/02 01:03:35;;;;;;;;;;;;;;;;;;5077582;28;19915;-41
2022/07/02 01:06:00;;;;;;;;;;;;;;;;;;5078254;28;19935;-41
2022/07/02 01:11:09;;;;;;;;;;;;;;;;;;5077992;28;19987;-41
2022/07/02 01:13:34;;;;;;;;;;;;;;;;;;5077606;28;20368;-41
2022/07/02 01:15:59;;;;;;;;;;;;;;;;;;5077492;28;19909;-42
2022/07/02 01:18:24;;;;;;;;;;;;;;;;;;5077358;28;19915;-41
2022/07/02 01:20:49;;;;;;;;;;;;;;;;;;5077250;28;20351;-41
2022/07/02 01:23:14;;;;;;;;;;;;;;;;;;5077587;28;19949;-41
2022/07/02 01:25:40;;;;;;;;;;;;;;;;;;5077525;28;19968;-41
2022/07/02 01:28:05;;;;;;;;;;;;;;;;;;5077223;28;19962;-42
2022/07/02 01:30:30;;;;;;;;;;;;;;;;;;5077116;28;20269;-41
2022/07/02 01:32:55;;;;;;;;;;;;;;;;;;5077169;28;19974;-41
2022/07/02 01:35:20;;;;;;;;;;;;;;;;;;5076964;28;19916;-41
2022/07/02 01:37:46;;;;;;;;;;;;;;;;;;5076878;28;19916;-41
2022/07/02 01:40:11;;;;;;;;;;;;;;;;;;5076949;28;19913;-42
2022/07/02 01:42:36;;;;;;;;;;;;;;;;;;5076935;28;19961;-41
2022/07/02 01:45:01;;;;;;;;;;;;;;;;;;5076865;28;19913;-42
2022/07/02 01:47:26;;;;;;;;;;;;;;;;;;5077137;28;19905;-41
2022/07/02 01:49:51;;;;;;;;;;;;;;;;;;5077012;28;19909;-41
2022/07/02 01:52:17;;;;;;;;;;;;;;;;;;5076559;28;19908;-41
2022/07/02 01:54:42;;;;;;;;;;;;;;;;;;5076764;28;19963;-41
2022/07/02 01:57:07;;;;;;;;;;;;;;;;;;5076668;28;19943;-41
2022/07/02 01:59:32;;;;;;;;;;;;;;;;;;5076856;28;19958;-42
2022/07/02 02:01:57;;;;;;;;;;;;;;;;;;5076585;28;20367;-42
2022/07/02 02:04:22;;;;;;;;;;;;;;;;;;5076653;28;19954;-41
2022/07/02 02:06:47;;;;;;;;;;;;;;;;;;5076737;28;19955;-41
2022/07/02 02:09:12;;;;;;;;;;;;;;;;;;5076901;28;19908;-41
2022/07/02 02:11:38;;;;;;;;;;;;;;;;;;5076507;28;19958;-41
2022/07/02 02:14:03;;;;;;;;;;;;;;;;;;5075959;28;19948;-41
2022/07/02 02:16:28;;;;;;;;;;;;;;;;;;5076050;28;19908;-41
2022/07/02 02:18:53;;;;;;;;;;;;;;;;;;5076495;28;19912;-41
2022/07/02 02:21:18;;;;;;;;;;;;;;;;;;5076369;28;20249;-42
2022/07/02 02:23:43;;;;;;;;;;;;;;;;;;5076410;28;19962;-41
2022/07/02 02:26:08;;;;;;;;;;;;;;;;;;5076295;28;19934;-41
2022/07/02 02:28:33;;;;;;;;;;;;;;;;;;5076477;28;19908;-41
2022/07/02 02:30:58;;;;;;;;;;;;;;;;;;5075143;28;19954;-42
2022/07/02 02:33:24;;;;;;;;;;;;;;;;;;5067285;28;19962;-41
2022/07/02 02:35:49;;;;;;;;;;;;;;;;;;5075962;28;19958;-42
2022/07/02 02:38:14;;;;;;;;;;;;;;;;;;5076411;28;19909;-41
2022/07/02 02:40:39;;;;;;;;;;;;;;;;;;5076286;28;19944;-41
2022/07/02 02:43:04;;;;;;;;;;;;;;;;;;5076471;28;19908;-41
2022/07/02 02:45:29;;;;;;;;;;;;;;;;;;5076426;28;20373;-41
2022/07/02 02:47:55;;;;;;;;;;;;;;;;;;5076076;28;19908;-42
2022/07/02 02:50:20;;;;;;;;;;;;;;;;;;5075831;28;19944;-41
2022/07/02 02:52:45;;;;;;;;;;;;;;;;;;5075840;28;20375;-41
2022/07/02 02:55:10;;;;;;;;;;;;;;;;;;5075763;28;19912;-41
2022/07/02 02:57:35;;;;;;;;;;;;;;;;;;5075653;28;19908;-41
2022/07/02 03:00:00;;;;;;;;;;;;;;;;;;5075442;28;20359;-41
2022/07/02 03:02:25;;;;;;;;;;;;;;;;;;5075783;28;19912;-42
2022/07/02 03:04:50;;;;;;;;;;;;;;;;;;5075283;28;19912;-42
2022/07/02 03:07:16;;;;;;;;;;;;;;;;;;5075778;28;19917;-41
2022/07/02 03:09:41;;;;;;;;;;;;;;;;;;5075358;28;19908;-41
2022/07/02 03:12:06;;;;;;;;;;;;;;;;;;5075664;28;19960;-42
2022/07/02 03:14:31;;;;;;;;;;;;;;;;;;5075721;28;19905;-41
2022/07/02 03:16:56;;;;;;;;;;;;;;;;;;5075381;28;19909;-40
2022/07/02 03:19:21;;;;;;;;;;;;;;;;;;5075565;28;19913;-41
2022/07/02 03:21:46;;;;;;;;;;;;;;;;;;5075333;28;19908;-41
2022/07/02 03:24:12;;;;;;;;;;;;;;;;;;5075278;28;19908;-41
2022/07/02 03:26:37;;;;;;;;;;;;;;;;;;5075057;28;20248;-41
2022/07/02 03:29:02;;;;;;;;;;;;;;;;;;5075227;28;19987;-41
2022/07/02 03:31:28;;;;;;;;;;;;;;;;;;5075212;28;19921;-41
2022/07/02 03:33:53;;;;;;;;;;;;;;;;;;5075446;28;20325;-41
2022/07/02 03:36:18;;;;;;;;;;;;;;;;;;5075289;28;19915;-41
2022/07/02 03:38:43;;;;;;;;;;;;;;;;;;5075291;28;19912;-41
2022/07/02 03:41:08;;;;;;;;;;;;;;;;;;5075266;28;19914;-41
2022/07/02 03:43:34;;;;;;;;;;;;;;;;;;5075237;28;20386;-41
2022/07/02 03:45:59;;;;;;;;;;;;;;;;;;5075222;28;20320;-41
2022/07/02 03:48:24;;;;;;;;;;;;;;;;;;5075110;28;20344;-41
2022/07/02 03:50:50;;;;;;;;;;;;;;;;;;5074931;28;19915;-41
2022/07/02 03:53:15;;;;;;;;;;;;;;;;;;5075224;28;19915;-41
2022/07/02 03:55:40;;;;;;;;;;;;;;;;;;5075071;28;20356;-41
2022/07/02 03:58:05;;;;;;;;;;;;;;;;;;5075133;28;20283;-41
2022/07/02 04:00:30;;;;;;;;;;;;;;;;;;5074712;28;19919;-42
2022/07/02 04:02:55;;;;;;;;;;;;;;;;;;5075029;28;19915;-41
2022/07/02 04:05:20;;;;;;;;;;;;;;;;;;5074976;28;20342;-41
2022/07/02 04:07:45;;;;;;;;;;;;;;;;;;5075140;28;19913;-41
2022/07/02 04:10:11;;;;;;;;;;;;;;;;;;5074647;28;19915;-41
2022/07/02 04:12:36;;;;;;;;;;;;;;;;;;5074975;28;20007;-41
2022/07/02 04:15:01;;;;;;;;;;;;;;;;;;5074922;28;19962;-40
2022/07/02 04:17:26;;;;;;;;;;;;;;;;;;5075175;28;19946;-41
2022/07/02 04:19:51;;;;;;;;;;;;;;;;;;5075313;28;19913;-41
2022/07/02 04:22:16;;;;;;;;;;;;;;;;;;5075271;28;19916;-42
2022/07/02 04:24:41;;;;;;;;;;;;;;;;;;5075122;28;19932;-41
2022/07/02 04:27:06;;;;;;;;;;;;;;;;;;5075171;28;19915;-42
2022/07/02 04:29:31;;;;;;;;;;;;;;;;;;5061468;28;19963;-41
2022/07/02 04:31:57;;;;;;;;;;;;;;;;;;5054547;28;19927;-41
2022/07/02 04:34:22;;;;;;;;;;;;;;;;;;5055094;28;19915;-41
2022/07/02 04:36:47;;;;;;;;;;;;;;;;;;5055092;28;19963;-41
2022/07/02 04:39:12;;;;;;;;;;;;;;;;;;5058034;28;19913;-41
2022/07/02 04:41:37;;;;;;;;;;;;;;;;;;5058705;28;20280;-41
2022/07/02 04:44:02;;;;;;;;;;;;;;;;;;5058404;28;19909;-41
2022/07/02 04:46:27;;;;;;;;;;;;;;;;;;5058112;28;19971;-41
2022/07/02 04:48:52;;;;;;;;;;;;;;;;;;5058543;28;20038;-40
2022/07/02 04:51:18;;;;;;;;;;;;;;;;;;5040209;28;19909;-41
2022/07/02 04:53:43;;;;;;;;;;;;;;;;;;5058246;28;19909;-41
2022/07/02 04:56:08;;;;;;;;;;;;;;;;;;5058139;28;20368;-41
2022/07/02 04:58:33;;;;;;;;;;;;;;;;;;5057796;28;20276;-41
2022/07/02 05:00:58;;;;;;;;;;;;;;;;;;5058169;28;19978;-41
2022/07/02 05:03:23;;;;;;;;;;;;;;;;;;5058177;28;19963;-41
2022/07/02 05:05:48;;;;;;;;;;;;;;;;;;5058180;28;19909;-40
2022/07/02 05:08:13;;;;;;;;;;;;;;;;;;5057930;28;19908;-41
2022/07/02 05:10:38;;;;;;;;;;;;;;;;;;5057777;28;19948;-42
2022/07/02 05:13:04;;;;;;;;;;;;;;;;;;5039888;28;19909;-41
2022/07/02 05:15:29;;;;;;;;;;;;;;;;;;5057750;28;19916;-41
2022/07/02 05:17:54;;;;;;;;;;;;;;;;;;5057974;28;19909;-41
2022/07/02 05:20:19;;;;;;;;;;;;;;;;;;5057453;28;19919;-41
2022/07/02 05:22:44;;;;;;;;;;;;;;;;;;5057468;28;19916;-41
2022/07/02 05:25:09;;;;;;;;;;;;;;;;;;5057519;28;20275;-41
2022/07/02 05:27:35;;;;;;;;;;;;;;;;;;5057553;28;19916;-42
2022/07/02 05:30:00;;;;;;;;;;;;;;;;;;5057395;28;19935;-42
2022/07/02 05:32:25;;;;;;;;;;;;;;;;;;5057416;28;19921;-41
2022/07/02 05:34:50;;;;;;;;;;;;;;;;;;5057221;28;19955;-41
2022/07/02 05:37:15;;;;;;;;;;;;;;;;;;5057364;28;19915;-41
2022/07/02 05:39:40;;;;;;;;;;;;;;;;;;5057094;28;19913;-42
2022/07/02 05:42:05;;;;;;;;;;;;;;;;;;5056981;28;19916;-41
2022/07/02 05:44:30;;;;;;;;;;;;;;;;;;5056918;28;19909;-41
2022/07/02 05:46:56;;;;;;;;;;;;;;;;;;5057023;28;19909;-41
2022/07/02 05:49:21;;;;;;;;;;;;;;;;;;5057125;28;19909;-42
2022/07/02 05:51:46;;;;;;;;;;;;;;;;;;5057100;28;20349;-41
2022/07/02 05:54:11;;;;;;;;;;;;;;;;;;5056774;28;19968;-42
2022/07/02 05:56:36;;;;;;;;;;;;;;;;;;5056856;28;19920;-42
2022/07/02 05:59:01;;;;;;;;;;;;;;;;;;5056656;28;19913;-41
2022/07/02 06:01:27;;;;;;;;;;;;;;;;;;5056884;28;20003;-42
2022/07/02 06:03:52;;;;;;;;;;;;;;;;;;5056492;28;19913;-41
2022/07/02 06:09:01;;;;;;;;;;;;;;;;;;5056344;28;20370;-41
2022/07/02 06:11:27;;;;;;;;;;;;;;;;;;5056139;28;19940;-42
2022/07/02 06:13:52;;;;;;;;;;;;;;;;;;5056056;28;20288;-42
2022/07/02 06:16:17;;;;;;;;;;;;;;;;;;5055926;28;19909;-41
2022/07/02 06:18:42;;;;;;;;;;;;;;;;;;5038479;28;20333;-41
2022/07/02 06:21:07;;;;;;;;;;;;;;;;;;5056291;28;19939;-41
2022/07/02 06:23:32;;;;;;;;;;;;;;;;;;5056406;28;19909;-42
2022/07/02 06:25:57;;;;;;;;;;;;;;;;;;5056470;28;19909;-42
2022/07/02 06:28:23;;;;;;;;;;;;;;;;;;5056253;28;19909;-42
2022/07/02 06:30:48;;;;;;;;;;;;;;;;;;5037965;28;19944;-41
2022/07/02 06:33:13;;;;;;;;;;;;;;;;;;5056083;28;19908;-42
2022/07/02 06:35:40;;;;;;;;;;;;;;;;;;5055551;28;19913;-41
2022/07/02 06:38:06;;;;;;;;;;;;;;;;;;5055500;28;19909;-42
2022/07/02 06:40:31;;;;;;;;;;;;;;;;;;5055611;28;20367;-41
2022/07/02 06:42:57;;;;;;;;;;;;;;;;;;5055479;28;19909;-42
2022/07/02 06:45:22;;;;;;;;;;;;;;;;;;5055409;28;20023;-41
2022/07/02 06:47:47;;;;;;;;;;;;;;;;;;5055520;28;20054;-41
2022/07/02 06:50:13;;;;;;;;;;;;;;;;;;5055282;28;19931;-41
2022/07/02 06:52:38;;;;;;;;;;;;;;;;;;5055055;28;19944;-41
2022/07/02 06:55:03;;;;;;;;;;;;;;;;;;5055381;28;19948;-41
2022/07/02 06:57:28;;;;;;;;;;;;;;;;;;5055160;28;19971;-42
2022/07/02 06:59:53;;;;;;;;;;;;;;;;;;5055407;28;19913;-42
2022/07/02 07:02:18;;;;;;;;;;;;;;;;;;5057344;28;19924;-42
2022/07/02 07:04:43;;;;;;;;;;;;;;;;;;5058751;28;20003;-42
2022/07/02 07:07:10;;;;;;;;;;;;;;;;;;5055165;28;19916;-41
2022/07/02 07:09:35;;;;;;;;;;;;;;;;;;5054979;28;19909;-42
2022/07/02 07:12:00;;;;;;;;;;;;;;;;;;5055912;28;19954;-41
2022/07/02 07:14:25;;;;;;;;;;;;;;;;;;5055328;28;19962;-42
2022/07/02 07:16:50;;;;;;;;;;;;;;;;;;5055131;28;19916;-41
2022/07/02 07:19:16;;;;;;;;;;;;;;;;;;5055249;28;19955;-41
2022/07/02 07:21:41;;;;;;;;;;;;;;;;;;5055113;28;19944;-41
2022/07/02 07:24:06;;;;;;;;;;;;;;;;;;5055285;28;19912;-41
2022/07/02 07:26:31;;;;;;;;;;;;;;;;;;5055106;28;19909;-41
2022/07/02 07:28:57;;;;;;;;;;;;;;;;;;5054762;28;19915;-41
2022/07/02 07:31:22;;;;;;;;;;;;;;;;;;5054964;28;19931;-42
2022/07/02 07:33:47;;;;;;;;;;;;;;;;;;5055278;28;19971;-42
2022/07/02 07:36:12;;;;;;;;;;;;;;;;;;5054917;28;19908;-42
2022/07/02 07:38:37;;;;;;;;;;;;;;;;;;5054495;28;20017;-42
2022/07/02 07:41:02;;;;;;;;;;;;;;;;;;5054784;28;19909;-42
2022/07/02 07:43:27;;;;;;;;;;;;;;;;;;5054874;28;20005;-41
2022/07/02 07:45:52;;;;;;;;;;;;;;;;;;5054814;28;19986;-42
2022/07/02 07:48:17;;;;;;;;;;;;;;;;;;5036872;28;20428;-42
2022/07/02 07:50:43;;;;;;;;;;;;;;;;;;5054938;28;20382;-42
2022/07/02 07:53:08;;;;;;;;;;;;;;;;;;5055122;28;19930;-42
2022/07/02 07:55:33;;;;;;;;;;;;;;;;;;5066158;28;20027;-42
2022/07/02 07:57:58;;;;;;;;;;;;;;;;;;5074479;28;20071;-42
2022/07/02 08:00:23;;;;;;;;;;;;;;;;;;5074561;28;19920;-42
2022/07/02 08:02:49;;;;;;;;;;;;;;;;;;5074514;28;19908;-42
2022/07/02 08:05:14;;;;;;;;;;;;;;;;;;5074556;28;20374;-43
2022/07/02 08:07:39;;;;;;;;;;;;;;;;;;5074450;28;19938;-42
2022/07/02 08:10:04;;;;;;;;;;;;;;;;;;5074178;28;19934;-42
2022/07/02 08:12:29;;;;;;;;;;;;;;;;;;5074694;28;19909;-42
2022/07/02 08:14:54;;;;;;;;;;;;;;;;;;5078192;28;19962;-42
2022/07/02 08:17:19;;;;;;;;;;;;;;;;;;5077991;28;19908;-42
2022/07/02 08:19:45;;;;;;;;;;;;;;;;;;5078276;28;19920;-42
2022/07/02 08:22:10;;;;;;;;;;;;;;;;;;5078540;28;19909;-41
2022/07/02 08:24:35;;;;;;;;;;;;;;;;;;5078231;28;20314;-42
2022/07/02 08:27:00;;;;;;;;;;;;;;;;;;5078098;28;20291;-42
2022/07/02 08:29:25;;;;;;;;;;;;;;;;;;5077865;28;20003;-42
2022/07/02 08:31:52;;;;;;;;;;;;;;;;;;5077626;28;19921;-41
2022/07/02 08:34:17;;;;;;;;;;;;;;;;;;5077800;28;20272;-42
2022/07/02 08:36:42;;;;;;;;;;;;;;;;;;5077795;28;19915;-42
2022/07/02 08:39:07;;;;;;;;;;;;;;;;;;5077894;28;19935;-42
2022/07/02 08:41:32;;;;;;;;;;;;;;;;;;5077727;28;19908;-42
2022/07/02 08:43:57;;;;;;;;;;;;;;;;;;5077504;28;19908;-42
2022/07/02 08:46:22;;;;;;;;;;;;;;;;;;5077625;28;20282;-42
2022/07/02 08:48:48;;;;;;;;;;;;;;;;;;5077596;28;20004;-42
2022/07/02 08:51:13;;;;;;;;;;;;;;;;;;5077394;28;19909;-42
2022/07/02 08:53:39;;;;;;;;;;;;;;;;;;5077582;28;19963;-42
2022/07/02 08:56:05;;;;;;;;;;;;;;;;;;5077463;28;19908;-42
2022/07/02 08:58:30;;;;;;;;;;;;;;;;;;5077277;28;20435;-42
2022/07/02 09:00:55;;;;;;;;;;;;;;;;;;5077224;28;19944;-42
2022/07/02 09:03:21;;;;;;;;;;;;;;;;;;5059159;28;20379;-42
2022/07/02 09:05:46;;;;;;;;;;;;;;;;;;5077181;28;19915;-42
2022/07/02 09:08:11;;;;;;;;;;;;;;;;;;5077096;28;19908;-43
2022/07/02 09:10:37;;;;;;;;;;;;;;;;;;5077025;28;19919;-43
2022/07/02 09:13:02;;;;;;;;;;;;;;;;;;5077008;28;19909;-42
2022/07/02 09:15:27;;;;;;;;;;;;;;;;;;5077244;28;19913;-43
2022/07/02 09:17:52;;;;;;;;;;;;;;;;;;5076879;28;19908;-42
2022/07/02 09:20:17;;;;;;;;;;;;;;;;;;5076738;28;19927;-42
2022/07/02 09:22:42;;;;;;;;;;;;;;;;;;5076743;28;19920;-43
2022/07/02 09:25:08;;;;;;;;;;;;;;;;;;5076347;28;19983;-42
2022/07/02 09:27:33;;;;;;;;;;;;;;;;;;5058737;28;19912;-43
2022/07/02 09:29:58;;;;;;;;;;;;;;;;;;5076728;28;19915;-43
2022/07/02 09:32:23;;;;;;;;;;;;;;;;;;5076286;28;19927;-42
2022/07/02 09:34:49;;;;;;;;;;;;;;;;;;5076481;28;19916;-43
2022/07/02 09:37:14;;;;;;;;;;;;;;;;;;5076550;28;20275;-44
2022/07/02 09:39:39;;;;;;;;;;;;;;;;;;5076271;28;19912;-44
2022/07/02 09:42:04;;;;;;;;;;;;;;;;;;5076472;28;19908;-43
2022/07/02 09:44:29;;;;;;;;;;;;;;;;;;5076080;28;20488;-43
2022/07/02 09:46:54;;;;;;;;;;;;;;;;;;5076141;28;19909;-43
2022/07/02 09:49:19;;;;;;;;;;;;;;;;;;5076109;28;19915;-42
2022/07/02 09:51:45;;;;;;;;;;;;;;;;;;5076338;28;19909;-43
2022/07/02 09:54:10;;;;;;;;;;;;;;;;;;5075923;28;20369;-43
2022/07/02 09:56:35;;;;;;;;;;;;;;;;;;5076167;28;19915;-43
2022/07/02 09:59:00;;;;;;;;;;;;;;;;;;5076058;28;20407;-43
2022/07/02 10:01:25;;;;;;;;;;;;;;;;;;5075884;28;19908;-43
2022/07/02 10:03:50;;;;;;;;;;;;;;;;;;5057826;28;20000;-42
2022/07/02 10:06:15;;;;;;;;;;;;;;;;;;5075966;28;20046;-44
2022/07/02 10:08:40;;;;;;;;;;;;;;;;;;5075975;28;19916;-43
2022/07/02 10:11:06;;;;;;;;;;;;;;;;;;5075857;28;19909;-43
2022/07/02 10:13:31;;;;;;;;;;;;;;;;;;5075702;28;19908;-43
2022/07/02 10:15:56;;;;;;;;;;;;;;;;;;5075976;28;19915;-43
2022/07/02 10:18:21;;;;;;;;;;;;;;;;;;5075632;28;19908;-43
2022/07/02 10:20:46;;;;;;;;;;;;;;;;;;5074477;28;20394;-43
2022/07/02 10:23:11;;;;;;;;;;;;;;;;;;5075479;28;19915;-43
2022/07/02 10:25:36;;;;;;;;;;;;;;;;;;5075379;28;20447;-44
2022/07/02 10:28:02;;;;;;;;;;;;;;;;;;5075207;28;19912;-43
2022/07/02 10:30:33;;;;;;;;;;;;;;;;;;5075100;28;19909;-43
2022/07/02 10:32:58;;;;;;;;;;;;;;;;;;5082760;22;19924;-44
2022/07/02 10:35:23;;;;;;;;;;;;;;;;;;5074486;28;19916;-44
2022/07/02 10:37:49;;;;;;;;;;;;;;;;;;5075045;28;19908;-43
2022/07/02 10:40:14;;;;;;;;;;;;;;;;;;5075030;28;20417;-45
2022/07/02 10:42:39;;;;;;;;;;;;;;;;;;5075003;28;20003;-44
2022/07/02 10:45:04;;;;;;;;;;;;;;;;;;5075046;28;19908;-43
2022/07/02 10:47:29;;;;;;;;;;;;;;;;;;5074803;28;19909;-43
2022/07/02 10:49:54;;;;;;;;;;;;;;;;;;5075049;28;19915;-43
2022/07/02 10:52:20;;;;;;;;;;;;;;;;;;5075111;28;20008;-43
2022/07/02 10:54:45;;;;;;;;;;;;;;;;;;5075194;28;19999;-44
2022/07/02 10:57:10;;;;;;;;;;;;;;;;;;5074892;28;19996;-43
2022/07/02 10:59:38;;;;;;;;;;;;;;;;;;5074881;28;19916;-43
2022/07/02 11:02:03;;;;;;;;;;;;;;;;;;5075091;28;19908;-44
2022/07/02 11:04:28;;;;;;;;;;;;;;;;;;5075205;28;20287;-43
2022/07/02 11:06:53;;;;;;;;;;;;;;;;;;5074807;28;19916;-43
2022/07/02 11:09:18;;;;;;;;;;;;;;;;;;5056713;28;19908;-44
2022/07/02 11:11:45;;;;;;;;;;;;;;;;;;5074510;28;19908;-43
2022/07/02 11:14:10;;;;;;;;;;;;;;;;;;5074413;28;19999;-43
2022/07/02 11:16:37;;;;;;;;;;;;;;;;;;5074407;28;19950;-43
2022/07/02 11:19:02;;;;;;;;;;;;;;;;;;5074419;28;19912;-44
2022/07/02 11:21:29;;;;;;;;;;;;;;;;;;5074445;28;19923;-44
2022/07/02 11:23:54;;;;;;;;;;;;;;;;;;5074530;28;19912;-44
2022/07/02 11:26:19;;;;;;;;;;;;;;;;;;5074508;28;20283;-43
2022/07/02 11:28:44;;;;;;;;;;;;;;;;;;5074493;28;19905;-44
2022/07/02 11:31:10;;;;;;;;;;;;;;;;;;5074241;28;20432;-43
2022/07/02 11:33:35;;;;;;;;;;;;;;;;;;5074323;28;20418;-44
2022/07/02 11:36:00;;;;;;;;;;;;;;;;;;5074556;28;19915;-44
2022/07/02 11:38:25;;;;;;;;;;;;;;;;;;5074646;28;19961;-43
2022/07/02 11:40:50;;;;;;;;;;;;;;;;;;5074340;28;20003;-44
2022/07/02 11:43:16;;;;;;;;;;;;;;;;;;5074496;28;20318;-43
2022/07/02 11:45:41;;;;;;;;;;;;;;;;;;5074704;28;19909;-43
2022/07/02 11:48:06;;;;;;;;;;;;;;;;;;5077630;28;19909;-43
2022/07/02 11:50:32;;;;;;;;;;;;;;;;;;5078446;28;19909;-43
2022/07/02 11:52:57;;;;;;;;;;;;;;;;;;5078595;28;20284;-44
2022/07/02 11:55:23;;;;;;;;;;;;;;;;;;5078508;28;19909;-42
2022/07/02 11:57:48;;;;;;;;;;;;;;;;;;5078430;28;20368;-43
2022/07/02 12:00:13;;;;;;;;;;;;;;;;;;5078234;28;20367;-43
2022/07/02 12:02:38;;;;;;;;;;;;;;;;;;5078306;28;19913;-44
2022/07/02 12:05:04;;;;;;;;;;;;;;;;;;5078225;28;19908;-44
2022/07/02 12:07:29;;;;;;;;;;;;;;;;;;5078216;28;19912;-43
2022/07/02 12:09:54;;;;;;;;;;;;;;;;;;5078104;28;19915;-43
2022/07/02 12:12:19;;;;;;;;;;;;;;;;;;5078069;28;20002;-43
2022/07/02 12:14:45;;;;;;;;;;;;;;;;;;5077929;28;20011;-43
2022/07/02 12:17:12;;;;;;;;;;;;;;;;;;5078010;28;20372;-43
2022/07/02 12:19:37;;;;;;;;;;;;;;;;;;5077822;28;19965;-43
2022/07/02 12:22:02;;;;;;;;;;;;;;;;;;5077890;28;19912;-43
2022/07/02 12:24:28;;;;;;;;;;;;;;;;;;5077786;28;19913;-45
2022/07/02 12:26:53;;;;;;;;;;;;;;;;;;5077745;28;19908;-43
2022/07/02 12:32:02;;;;;;;;;;;;;;;;;;5077111;28;20271;-46
2022/07/02 12:34:27;;;;;;;;;;;;;;;;;;5077606;28;19912;-44
2022/07/02 12:36:53;;;;;;;;;;;;;;;;;;5075067;28;19913;-43
2022/07/02 12:39:18;;;;;;;;;;;;;;;;;;5062380;28;19980;-44
2022/07/02 12:41:43;;;;;;;;;;;;;;;;;;5057368;28;19912;-43
2022/07/02 12:44:10;;;;;;;;;;;;;;;;;;5057478;28;19919;-43
2022/07/02 12:46:36;;;;;;;;;;;;;;;;;;5057225;28;19909;-44
2022/07/02 12:49:01;;;;;;;;;;;;;;;;;;5057178;28;19954;-43
2022/07/02 12:51:26;;;;;;;;;;;;;;;;;;5057492;28;19962;-43
2022/07/02 12:53:51;;;;;;;;;;;;;;;;;;5075008;28;19912;-43
2022/07/02 12:56:16;;;;;;;;;;;;;;;;;;5077289;28;19908;-43
2022/07/02 12:58:41;;;;;;;;;;;;;;;;;;5076771;28;19908;-43
2022/07/02 13:01:06;;;;;;;;;;;;;;;;;;5077230;28;19917;-44
2022/07/02 13:03:32;;;;;;;;;;;;;;;;;;5077087;28;19908;-43
2022/07/02 13:05:58;;;;;;;;;;;;;;;;;;5059132;28;20256;-44
2022/07/02 13:08:23;;;;;;;;;;;;;;;;;;5077257;28;19909;-43
2022/07/02 13:10:50;;;;;;;;;;;;;;;;;;5076954;28;19951;-44
2022/07/02 13:13:15;;;;;;;;;;;;;;;;;;5076935;28;20267;-44
2022/07/02 13:15:42;;;;;;;;;;;;;;;;;;5076907;28;19909;-43
2022/07/02 13:18:07;;;;;;;;;;;;;;;;;;5076886;28;20272;-43
2022/07/02 13:20:33;;;;;;;;;;;;;;;;;;5076751;28;19958;-44
2022/07/02 13:22:58;;;;;;;;;;;;;;;;;;5076832;28;20413;-43
2022/07/02 13:25:23;;;;;;;;;;;;;;;;;;5076795;28;19912;-44
2022/07/02 13:27:48;;;;;;;;;;;;;;;;;;5076527;28;19916;-43
2022/07/02 13:30:13;;;;;;;;;;;;;;;;;;5076742;28;19913;-43
2022/07/02 13:32:38;;;;;;;;;;;;;;;;;;5076376;28;19925;-44
2022/07/02 13:35:03;;;;;;;;;;;;;;;;;;5076592;28;19915;-44
2022/07/02 13:37:29;;;;;;;;;;;;;;;;;;5076509;28;19909;-44
2022/07/02 13:39:54;;;;;;;;;;;;;;;;;;5076737;28;19919;-45
2022/07/02 13:42:19;;;;;;;;;;;;;;;;;;5076426;28;19908;-43
2022/07/02 13:44:44;;;;;;;;;;;;;;;;;;5076433;28;20416;-44
2022/07/02 13:47:09;;;;;;;;;;;;;;;;;;5076320;28;19983;-43
2022/07/02 13:49:34;;;;;;;;;;;;;;;;;;5076160;28;19909;-44
2022/07/02 13:52:00;;;;;;;;;;;;;;;;;;5076122;28;19909;-44
2022/07/02 13:54:25;;;;;;;;;;;;;;;;;;5076101;28;19908;-43
2022/07/02 13:56:50;;;;;;;;;;;;;;;;;;5075950;28;19905;-44
2022/07/02 13:59:15;;;;;;;;;;;;;;;;;;5075878;28;19912;-44
2022/07/02 14:01:40;;;;;;;;;;;;;;;;;;5075723;28;19916;-43
2022/07/02 14:04:05;;;;;;;;;;;;;;;;;;5075988;28;19908;-44
2022/07/02 14:06:30;;;;;;;;;;;;;;;;;;5075827;28;19909;-43
2022/07/02 14:08:55;;;;;;;;;;;;;;;;;;5075818;28;19954;-43
2022/07/02 14:11:20;;;;;;;;;;;;;;;;;;5074751;28;19916;-43
2022/07/02 14:13:46;;;;;;;;;;;;;;;;;;5072215;28;19916;-43
2022/07/02 14:16:11;;;;;;;;;;;;;;;;;;5075502;28;20410;-44
2022/07/02 14:18:36;;;;;;;;;;;;;;;;;;5075616;28;19908;-45
2022/07/02 14:21:01;;;;;;;;;;;;;;;;;;5075651;28;19916;-45
2022/07/02 14:23:26;;;;;;;;;;;;;;;;;;5075581;28;19934;-43
2022/07/02 14:25:51;;;;;;;;;;;;;;;;;;5075489;28;19909;-44
2022/07/02 14:28:19;;;;;;;;;;;;;;;;;;5075449;28;19909;-45
2022/07/02 14:30:44;;;;;;;;;;;;;;;;;;5075274;28;19909;-44
2022/07/02 14:33:12;;;;;;;;;;;;;;;;;;5075162;28;19943;-43
2022/07/02 14:35:37;;;;;;;;;;;;;;;;;;5075355;28;19909;-44
2022/07/02 14:38:02;;;;;;;;;;;;;;;;;;5075254;28;19962;-43
2022/07/02 14:40:27;;;;;;;;;;;;;;;;;;5074998;28;19939;-44
2022/07/02 14:42:52;;;;;;;;;;;;;;;;;;5075184;28;19908;-43
2022/07/02 14:45:17;;;;;;;;;;;;;;;;;;5074956;28;20249;-43
2022/07/02 14:47:42;;;;;;;;;;;;;;;;;;5074924;28;19908;-44
2022/07/02 14:50:08;;;;;;;;;;;;;;;;;;5074796;28;19920;-44
2022/07/02 14:52:33;;;;;;;;;;;;;;;;;;5056538;28;19962;-45
2022/07/02 14:54:58;;;;;;;;;;;;;;;;;;5069625;28;19920;-43
2022/07/02 14:57:23;;;;;;;;;;;;;;;;;;5074987;28;19944;-43
2022/07/02 14:59:48;;;;;;;;;;;;;;;;;;5074677;28;19912;-43
2022/07/02 15:02:14;;;;;;;;;;;;;;;;;;5074687;28;20326;-43
2022/07/02 15:04:39;;;;;;;;;;;;;;;;;;5074708;28;20003;-43
2022/07/02 15:07:05;;;;;;;;;;;;;;;;;;5074650;28;19909;-43
2022/07/02 15:09:30;;;;;;;;;;;;;;;;;;5074604;28;20276;-43
2022/07/02 15:11:55;;;;;;;;;;;;;;;;;;5074712;28;19908;-43
2022/07/02 15:17:05;;;;;;;;;;;;;;;;;;5074682;28;20370;-43
2022/07/02 15:19:30;;;;;;;;;;;;;;;;;;5074433;28;19916;-43
2022/07/02 15:21:55;;;;;;;;;;;;;;;;;;5074037;28;19961;-43
2022/07/02 15:24:23;;;;;;;;;;;;;;;;;;5074529;28;20007;-44
2022/07/02 15:26:48;;;;;;;;;;;;;;;;;;5074447;28;19912;-43
2022/07/02 15:29:13;;;;;;;;;;;;;;;;;;5074388;28;19908;-43
2022/07/02 15:31:38;;;;;;;;;;;;;;;;;;5074257;28;19931;-43
2022/07/02 15:34:03;;;;;;;;;;;;;;;;;;5074648;28;20010;-43
2022/07/02 15:36:28;;;;;;;;;;;;;;;;;;5074365;28;19932;-43
2022/07/02 15:38:53;;;;;;;;;;;;;;;;;;5074349;28;19923;-44
2022/07/02 15:41:19;;;;;;;;;;;;;;;;;;5074307;28;19967;-43
2022/07/02 15:43:44;;;;;;;;;;;;;;;;;;5074273;28;19912;-44
2022/07/02 15:46:09;;;;;;;;;;;;;;;;;;5074265;28;19912;-43
2022/07/02 15:48:34;;;;;;;;;;;;;;;;;;5074280;28;20363;-43
2022/07/02 15:51:00;;;;;;;;;;;;;;;;;;5074331;28;20007;-43
2022/07/02 15:53:25;;;;;;;;;;;;;;;;;;5074456;28;19909;-44
2022/07/02 15:55:50;;;;;;;;;;;;;;;;;;5074188;28;19908;-44
2022/07/02 15:58:16;;;;;;;;;;;;;;;;;;5074160;28;19909;-44
2022/07/02 16:00:41;;;;;;;;;;;;;;;;;;5074181;28;20003;-44
2022/07/02 16:03:06;;;;;;;;;;;;;;;;;;5074160;28;19915;-43
2022/07/02 16:05:33;;;;;;;;;;;;;;;;;;5073401;28;20317;-43
2022/07/02 16:07:58;;;;;;;;;;;;;;;;;;5074162;28;19909;-43
2022/07/02 16:10:23;;;;;;;;;;;;;;;;;;5058973;28;20429;-44
2022/07/02 16:12:48;;;;;;;;;;;;;;;;;;5058001;28;19966;-43
2022/07/02 16:15:14;;;;;;;;;;;;;;;;;;5074058;28;19916;-43
2022/07/02 16:17:40;;;;;;;;;;;;;;;;;;5074075;28;19908;-44
2022/07/02 16:20:05;;;;;;;;;;;;;;;;;;5074109;28;20325;-43
2022/07/02 16:22:30;;;;;;;;;;;;;;;;;;5074146;28;20325;-44
2022/07/02 16:24:55;;;;;;;;;;;;;;;;;;5074146;28;19927;-44
2022/07/02 16:27:20;;;;;;;;;;;;;;;;;;5056217;28;19908;-44
2022/07/02 16:29:45;;;;;;;;;;;;;;;;;;5073998;28;19909;-43
2022/07/02 16:32:10;;;;;;;;;;;;;;;;;;5073791;28;19920;-44
2022/07/02 16:34:35;;;;;;;;;;;;;;;;;;5076038;28;20331;-43
2022/07/02 16:37:00;;;;;;;;;;;;;;;;;;5077492;28;19908;-43
2022/07/02 16:39:26;;;;;;;;;;;;;;;;;;5077755;28;19920;-43
2022/07/02 16:41:52;;;;;;;;;;;;;;;;;;5077586;28;19908;-43